<?xml version="1.0" encoding="UTF-8" standalone="no" ?>
<gpx xmlns="http://www.topografix.com/GPX/1/1" xmlns:xsi="http://www.w3.org/2001/XMLSchema-instance" xsi:schemaLocation="http://www.topografix.com/GPX/1/1 http://www.topografix.com/GPX/1/1/gpx.xsd" version="1.1" creator="VisuGPX - https://www.visugpx.com">
  <metadata>
    <name>Malzeville 04/05/2011</name>
    <desc><![CDATA[Malzeville 04/05/2011]]></desc>
  </metadata>
  <trk>
    <name><![CDATA[2011-05-04 18:03:04 +0200]]></name>
    <cmt><![CDATA[2011-05-04 18:03:04 +0200]]></cmt>
    <trkseg>
      <trkpt lat="48.71144" lon="6.18224">
        <ele>167</ele>
        <time>2011-05-04T16:03:06Z</time>
      </trkpt>
      <trkpt lat="48.71132" lon="6.18187">
        <ele>216</ele>
        <time>2011-05-04T16:06:00Z</time>
      </trkpt>
      <trkpt lat="48.71133" lon="6.18181">
        <ele>216</ele>
        <time>2011-05-04T16:12:10Z</time>
      </trkpt>
      <trkpt lat="48.7115" lon="6.1818">
        <ele>217</ele>
        <time>2011-05-04T16:12:14Z</time>
      </trkpt>
      <trkpt lat="48.71187" lon="6.18179">
        <ele>217</ele>
        <time>2011-05-04T16:12:24Z</time>
      </trkpt>
      <trkpt lat="48.71204" lon="6.18176">
        <ele>216</ele>
        <time>2011-05-04T16:12:28Z</time>
      </trkpt>
      <trkpt lat="48.7123" lon="6.1817">
        <ele>216</ele>
        <time>2011-05-04T16:12:34Z</time>
      </trkpt>
      <trkpt lat="48.71312" lon="6.18162">
        <ele>220</ele>
        <time>2011-05-04T16:12:52Z</time>
      </trkpt>
      <trkpt lat="48.71328" lon="6.18168">
        <ele>219</ele>
        <time>2011-05-04T16:12:56Z</time>
      </trkpt>
      <trkpt lat="48.71336" lon="6.18191">
        <ele>218</ele>
        <time>2011-05-04T16:13:00Z</time>
      </trkpt>
      <trkpt lat="48.71343" lon="6.18217">
        <ele>216</ele>
        <time>2011-05-04T16:13:04Z</time>
      </trkpt>
      <trkpt lat="48.71354" lon="6.18234">
        <ele>216</ele>
        <time>2011-05-04T16:13:08Z</time>
      </trkpt>
      <trkpt lat="48.71369" lon="6.18251">
        <ele>215</ele>
        <time>2011-05-04T16:13:13Z</time>
      </trkpt>
      <trkpt lat="48.71383" lon="6.18268">
        <ele>215</ele>
        <time>2011-05-04T16:13:17Z</time>
      </trkpt>
      <trkpt lat="48.71439" lon="6.18332">
        <ele>208</ele>
        <time>2011-05-04T16:13:33Z</time>
      </trkpt>
      <trkpt lat="48.7146" lon="6.18336">
        <ele>207</ele>
        <time>2011-05-04T16:13:38Z</time>
      </trkpt>
      <trkpt lat="48.71477" lon="6.18331">
        <ele>207</ele>
        <time>2011-05-04T16:13:43Z</time>
      </trkpt>
      <trkpt lat="48.71528" lon="6.18305">
        <ele>210</ele>
        <time>2011-05-04T16:13:57Z</time>
      </trkpt>
      <trkpt lat="48.71543" lon="6.18291">
        <ele>213</ele>
        <time>2011-05-04T16:14:02Z</time>
      </trkpt>
      <trkpt lat="48.71557" lon="6.1828">
        <ele>213</ele>
        <time>2011-05-04T16:14:06Z</time>
      </trkpt>
      <trkpt lat="48.71571" lon="6.1827">
        <ele>214</ele>
        <time>2011-05-04T16:14:10Z</time>
      </trkpt>
      <trkpt lat="48.7163" lon="6.18227">
        <ele>214</ele>
        <time>2011-05-04T16:14:25Z</time>
      </trkpt>
      <trkpt lat="48.71659" lon="6.18233">
        <ele>211</ele>
        <time>2011-05-04T16:14:33Z</time>
      </trkpt>
      <trkpt lat="48.71666" lon="6.18253">
        <ele>210</ele>
        <time>2011-05-04T16:14:39Z</time>
      </trkpt>
      <trkpt lat="48.71649" lon="6.18265">
        <ele>209</ele>
        <time>2011-05-04T16:14:44Z</time>
      </trkpt>
      <trkpt lat="48.71637" lon="6.18277">
        <ele>208</ele>
        <time>2011-05-04T16:14:48Z</time>
      </trkpt>
      <trkpt lat="48.71632" lon="6.18289">
        <ele>208</ele>
        <time>2011-05-04T16:14:51Z</time>
      </trkpt>
      <trkpt lat="48.71622" lon="6.18318">
        <ele>211</ele>
        <time>2011-05-04T16:14:58Z</time>
      </trkpt>
      <trkpt lat="48.71626" lon="6.1836">
        <ele>217</ele>
        <time>2011-05-04T16:15:09Z</time>
      </trkpt>
      <trkpt lat="48.71629" lon="6.18376">
        <ele>217</ele>
        <time>2011-05-04T16:15:13Z</time>
      </trkpt>
      <trkpt lat="48.71634" lon="6.18401">
        <ele>220</ele>
        <time>2011-05-04T16:15:20Z</time>
      </trkpt>
      <trkpt lat="48.71645" lon="6.18418">
        <ele>223</ele>
        <time>2011-05-04T16:15:29Z</time>
      </trkpt>
      <trkpt lat="48.71662" lon="6.18413">
        <ele>225</ele>
        <time>2011-05-04T16:15:35Z</time>
      </trkpt>
      <trkpt lat="48.71673" lon="6.18431">
        <ele>228</ele>
        <time>2011-05-04T16:15:42Z</time>
      </trkpt>
      <trkpt lat="48.71681" lon="6.18451">
        <ele>231</ele>
        <time>2011-05-04T16:15:49Z</time>
      </trkpt>
      <trkpt lat="48.71705" lon="6.18504">
        <ele>233</ele>
        <time>2011-05-04T16:16:07Z</time>
      </trkpt>
      <trkpt lat="48.71705" lon="6.18527">
        <ele>233</ele>
        <time>2011-05-04T16:16:15Z</time>
      </trkpt>
      <trkpt lat="48.71701" lon="6.18552">
        <ele>236</ele>
        <time>2011-05-04T16:16:23Z</time>
      </trkpt>
      <trkpt lat="48.71699" lon="6.18578">
        <ele>231</ele>
        <time>2011-05-04T16:16:39Z</time>
      </trkpt>
      <trkpt lat="48.7169" lon="6.18597">
        <ele>239</ele>
        <time>2011-05-04T16:17:14Z</time>
      </trkpt>
      <trkpt lat="48.71692" lon="6.1862">
        <ele>244</ele>
        <time>2011-05-04T16:17:25Z</time>
      </trkpt>
      <trkpt lat="48.71696" lon="6.18669">
        <ele>247</ele>
        <time>2011-05-04T16:17:40Z</time>
      </trkpt>
      <trkpt lat="48.71704" lon="6.1869">
        <ele>250</ele>
        <time>2011-05-04T16:17:48Z</time>
      </trkpt>
      <trkpt lat="48.7172" lon="6.18698">
        <ele>251</ele>
        <time>2011-05-04T16:17:59Z</time>
      </trkpt>
      <trkpt lat="48.71728" lon="6.187">
        <ele>253</ele>
        <time>2011-05-04T16:18:05Z</time>
      </trkpt>
      <trkpt lat="48.71743" lon="6.18693">
        <ele>256</ele>
        <time>2011-05-04T16:18:16Z</time>
      </trkpt>
      <trkpt lat="48.71776" lon="6.18665">
        <ele>262</ele>
        <time>2011-05-04T16:18:27Z</time>
      </trkpt>
      <trkpt lat="48.718" lon="6.18649">
        <ele>262</ele>
        <time>2011-05-04T16:18:32Z</time>
      </trkpt>
      <trkpt lat="48.7182" lon="6.18646">
        <ele>261</ele>
        <time>2011-05-04T16:18:38Z</time>
      </trkpt>
      <trkpt lat="48.71833" lon="6.1866">
        <ele>259</ele>
        <time>2011-05-04T16:18:46Z</time>
      </trkpt>
      <trkpt lat="48.71842" lon="6.1868">
        <ele>258</ele>
        <time>2011-05-04T16:18:54Z</time>
      </trkpt>
      <trkpt lat="48.71852" lon="6.18723">
        <ele>261</ele>
        <time>2011-05-04T16:19:10Z</time>
      </trkpt>
      <trkpt lat="48.71829" lon="6.18781">
        <ele>262</ele>
        <time>2011-05-04T16:19:39Z</time>
      </trkpt>
      <trkpt lat="48.7181" lon="6.18801">
        <ele>264</ele>
        <time>2011-05-04T16:19:51Z</time>
      </trkpt>
      <trkpt lat="48.71765" lon="6.18831">
        <ele>269</ele>
        <time>2011-05-04T16:20:08Z</time>
      </trkpt>
      <trkpt lat="48.71752" lon="6.18842">
        <ele>269</ele>
        <time>2011-05-04T16:20:16Z</time>
      </trkpt>
      <trkpt lat="48.71737" lon="6.18861">
        <ele>267</ele>
        <time>2011-05-04T16:20:24Z</time>
      </trkpt>
      <trkpt lat="48.71709" lon="6.18909">
        <ele>266</ele>
        <time>2011-05-04T16:20:36Z</time>
      </trkpt>
      <trkpt lat="48.71686" lon="6.18972">
        <ele>274</ele>
        <time>2011-05-04T16:20:54Z</time>
      </trkpt>
      <trkpt lat="48.71683" lon="6.19">
        <ele>275</ele>
        <time>2011-05-04T16:20:58Z</time>
      </trkpt>
      <trkpt lat="48.71689" lon="6.19076">
        <ele>275</ele>
        <time>2011-05-04T16:21:11Z</time>
      </trkpt>
      <trkpt lat="48.71695" lon="6.19099">
        <ele>276</ele>
        <time>2011-05-04T16:21:17Z</time>
      </trkpt>
      <trkpt lat="48.71707" lon="6.19121">
        <ele>280</ele>
        <time>2011-05-04T16:21:25Z</time>
      </trkpt>
      <trkpt lat="48.71716" lon="6.19141">
        <ele>280</ele>
        <time>2011-05-04T16:21:32Z</time>
      </trkpt>
      <trkpt lat="48.71732" lon="6.19197">
        <ele>289</ele>
        <time>2011-05-04T16:21:54Z</time>
      </trkpt>
      <trkpt lat="48.71746" lon="6.1922">
        <ele>290</ele>
        <time>2011-05-04T16:22:03Z</time>
      </trkpt>
      <trkpt lat="48.71763" lon="6.19241">
        <ele>294</ele>
        <time>2011-05-04T16:22:13Z</time>
      </trkpt>
      <trkpt lat="48.7177" lon="6.19261">
        <ele>295</ele>
        <time>2011-05-04T16:22:19Z</time>
      </trkpt>
      <trkpt lat="48.71785" lon="6.19268">
        <ele>296</ele>
        <time>2011-05-04T16:22:28Z</time>
      </trkpt>
      <trkpt lat="48.71803" lon="6.19275">
        <ele>296</ele>
        <time>2011-05-04T16:22:34Z</time>
      </trkpt>
      <trkpt lat="48.71874" lon="6.19272">
        <ele>290</ele>
        <time>2011-05-04T16:22:58Z</time>
      </trkpt>
      <trkpt lat="48.71888" lon="6.19269">
        <ele>291</ele>
        <time>2011-05-04T16:23:03Z</time>
      </trkpt>
      <trkpt lat="48.71934" lon="6.19256">
        <ele>291</ele>
        <time>2011-05-04T16:23:17Z</time>
      </trkpt>
      <trkpt lat="48.71949" lon="6.19251">
        <ele>290</ele>
        <time>2011-05-04T16:23:21Z</time>
      </trkpt>
      <trkpt lat="48.72043" lon="6.19203">
        <ele>291</ele>
        <time>2011-05-04T16:23:41Z</time>
      </trkpt>
      <trkpt lat="48.72093" lon="6.19178">
        <ele>286</ele>
        <time>2011-05-04T16:23:52Z</time>
      </trkpt>
      <trkpt lat="48.72104" lon="6.19172">
        <ele>286</ele>
        <time>2011-05-04T16:23:55Z</time>
      </trkpt>
      <trkpt lat="48.7212" lon="6.19164">
        <ele>285</ele>
        <time>2011-05-04T16:24:00Z</time>
      </trkpt>
      <trkpt lat="48.7213" lon="6.19157">
        <ele>285</ele>
        <time>2011-05-04T16:24:03Z</time>
      </trkpt>
      <trkpt lat="48.72139" lon="6.19149">
        <ele>286</ele>
        <time>2011-05-04T16:24:06Z</time>
      </trkpt>
      <trkpt lat="48.72157" lon="6.19136">
        <ele>286</ele>
        <time>2011-05-04T16:24:11Z</time>
      </trkpt>
      <trkpt lat="48.72165" lon="6.19131">
        <ele>285</ele>
        <time>2011-05-04T16:24:13Z</time>
      </trkpt>
      <trkpt lat="48.72211" lon="6.19102">
        <ele>285</ele>
        <time>2011-05-04T16:24:25Z</time>
      </trkpt>
      <trkpt lat="48.72226" lon="6.19092">
        <ele>286</ele>
        <time>2011-05-04T16:24:29Z</time>
      </trkpt>
      <trkpt lat="48.72293" lon="6.19042">
        <ele>286</ele>
        <time>2011-05-04T16:24:46Z</time>
      </trkpt>
      <trkpt lat="48.72302" lon="6.19035">
        <ele>287</ele>
        <time>2011-05-04T16:24:48Z</time>
      </trkpt>
      <trkpt lat="48.72341" lon="6.19001">
        <ele>287</ele>
        <time>2011-05-04T16:24:57Z</time>
      </trkpt>
      <trkpt lat="48.7235" lon="6.18994">
        <ele>288</ele>
        <time>2011-05-04T16:24:59Z</time>
      </trkpt>
      <trkpt lat="48.72366" lon="6.18979">
        <ele>288</ele>
        <time>2011-05-04T16:25:03Z</time>
      </trkpt>
      <trkpt lat="48.7244" lon="6.18913">
        <ele>292</ele>
        <time>2011-05-04T16:25:23Z</time>
      </trkpt>
      <trkpt lat="48.72456" lon="6.18919">
        <ele>293</ele>
        <time>2011-05-04T16:25:28Z</time>
      </trkpt>
      <trkpt lat="48.72466" lon="6.18936">
        <ele>291</ele>
        <time>2011-05-04T16:25:34Z</time>
      </trkpt>
      <trkpt lat="48.72459" lon="6.18956">
        <ele>290</ele>
        <time>2011-05-04T16:25:47Z</time>
      </trkpt>
      <trkpt lat="48.72438" lon="6.19007">
        <ele>306</ele>
        <time>2011-05-04T16:26:18Z</time>
      </trkpt>
      <trkpt lat="48.72431" lon="6.19014">
        <ele>307</ele>
        <time>2011-05-04T16:26:23Z</time>
      </trkpt>
      <trkpt lat="48.72425" lon="6.19026">
        <ele>311</ele>
        <time>2011-05-04T16:26:28Z</time>
      </trkpt>
      <trkpt lat="48.72404" lon="6.19088">
        <ele>325</ele>
        <time>2011-05-04T16:26:55Z</time>
      </trkpt>
      <trkpt lat="48.72349" lon="6.1917">
        <ele>336</ele>
        <time>2011-05-04T16:27:30Z</time>
      </trkpt>
      <trkpt lat="48.72334" lon="6.19202">
        <ele>339</ele>
        <time>2011-05-04T16:27:41Z</time>
      </trkpt>
      <trkpt lat="48.72317" lon="6.1923">
        <ele>339</ele>
        <time>2011-05-04T16:27:51Z</time>
      </trkpt>
      <trkpt lat="48.7225" lon="6.19317">
        <ele>350</ele>
        <time>2011-05-04T16:28:28Z</time>
      </trkpt>
      <trkpt lat="48.72191" lon="6.19398">
        <ele>349</ele>
        <time>2011-05-04T16:29:01Z</time>
      </trkpt>
      <trkpt lat="48.72114" lon="6.19472">
        <ele>365</ele>
        <time>2011-05-04T16:29:37Z</time>
      </trkpt>
      <trkpt lat="48.72077" lon="6.19505">
        <ele>368</ele>
        <time>2011-05-04T16:29:57Z</time>
      </trkpt>
      <trkpt lat="48.72055" lon="6.19523">
        <ele>368</ele>
        <time>2011-05-04T16:30:11Z</time>
      </trkpt>
      <trkpt lat="48.72026" lon="6.19549">
        <ele>372</ele>
        <time>2011-05-04T16:30:22Z</time>
      </trkpt>
      <trkpt lat="48.71995" lon="6.19579">
        <ele>371</ele>
        <time>2011-05-04T16:30:33Z</time>
      </trkpt>
      <trkpt lat="48.71971" lon="6.19627">
        <ele>373</ele>
        <time>2011-05-04T16:30:44Z</time>
      </trkpt>
      <trkpt lat="48.71965" lon="6.19694">
        <ele>377</ele>
        <time>2011-05-04T16:30:56Z</time>
      </trkpt>
      <trkpt lat="48.71974" lon="6.19786">
        <ele>381</ele>
        <time>2011-05-04T16:31:11Z</time>
      </trkpt>
      <trkpt lat="48.71978" lon="6.19811">
        <ele>381</ele>
        <time>2011-05-04T16:31:15Z</time>
      </trkpt>
      <trkpt lat="48.71971" lon="6.19878">
        <ele>385</ele>
        <time>2011-05-04T16:31:35Z</time>
      </trkpt>
      <trkpt lat="48.71962" lon="6.19897">
        <ele>385</ele>
        <time>2011-05-04T16:31:45Z</time>
      </trkpt>
      <trkpt lat="48.7195" lon="6.19926">
        <ele>381</ele>
        <time>2011-05-04T16:31:55Z</time>
      </trkpt>
      <trkpt lat="48.71938" lon="6.19946">
        <ele>382</ele>
        <time>2011-05-04T16:32:10Z</time>
      </trkpt>
      <trkpt lat="48.71927" lon="6.19964">
        <ele>371</ele>
        <time>2011-05-04T16:32:56Z</time>
      </trkpt>
      <trkpt lat="48.71922" lon="6.19973">
        <ele>372</ele>
        <time>2011-05-04T16:34:00Z</time>
      </trkpt>
      <trkpt lat="48.71902" lon="6.20025">
        <ele>383</ele>
        <time>2011-05-04T16:34:49Z</time>
      </trkpt>
      <trkpt lat="48.719" lon="6.2006">
        <ele>388</ele>
        <time>2011-05-04T16:34:54Z</time>
      </trkpt>
      <trkpt lat="48.71901" lon="6.20116">
        <ele>391</ele>
        <time>2011-05-04T16:35:01Z</time>
      </trkpt>
      <trkpt lat="48.71891" lon="6.20244">
        <ele>390</ele>
        <time>2011-05-04T16:35:20Z</time>
      </trkpt>
      <trkpt lat="48.71872" lon="6.2031">
        <ele>380</ele>
        <time>2011-05-04T16:35:31Z</time>
      </trkpt>
      <trkpt lat="48.71836" lon="6.20425">
        <ele>380</ele>
        <time>2011-05-04T16:35:45Z</time>
      </trkpt>
      <trkpt lat="48.71802" lon="6.20501">
        <ele>386</ele>
        <time>2011-05-04T16:35:57Z</time>
      </trkpt>
      <trkpt lat="48.7179" lon="6.20528">
        <ele>386</ele>
        <time>2011-05-04T16:36:01Z</time>
      </trkpt>
      <trkpt lat="48.71766" lon="6.20581">
        <ele>381</ele>
        <time>2011-05-04T16:36:13Z</time>
      </trkpt>
      <trkpt lat="48.71728" lon="6.20609">
        <ele>376</ele>
        <time>2011-05-04T16:36:30Z</time>
      </trkpt>
      <trkpt lat="48.71715" lon="6.20583">
        <ele>377</ele>
        <time>2011-05-04T16:36:45Z</time>
      </trkpt>
      <trkpt lat="48.71699" lon="6.20526">
        <ele>380</ele>
        <time>2011-05-04T16:36:58Z</time>
      </trkpt>
      <trkpt lat="48.71691" lon="6.20478">
        <ele>383</ele>
        <time>2011-05-04T16:37:05Z</time>
      </trkpt>
      <trkpt lat="48.71688" lon="6.20428">
        <ele>380</ele>
        <time>2011-05-04T16:37:13Z</time>
      </trkpt>
      <trkpt lat="48.71686" lon="6.20388">
        <ele>382</ele>
        <time>2011-05-04T16:37:20Z</time>
      </trkpt>
      <trkpt lat="48.71689" lon="6.2034">
        <ele>382</ele>
        <time>2011-05-04T16:37:29Z</time>
      </trkpt>
      <trkpt lat="48.71693" lon="6.20318">
        <ele>379</ele>
        <time>2011-05-04T16:37:33Z</time>
      </trkpt>
      <trkpt lat="48.71684" lon="6.20252">
        <ele>384</ele>
        <time>2011-05-04T16:37:52Z</time>
      </trkpt>
      <trkpt lat="48.71664" lon="6.2017">
        <ele>380</ele>
        <time>2011-05-04T16:38:03Z</time>
      </trkpt>
      <trkpt lat="48.7163" lon="6.2012">
        <ele>378</ele>
        <time>2011-05-04T16:38:13Z</time>
      </trkpt>
      <trkpt lat="48.71585" lon="6.20114">
        <ele>375</ele>
        <time>2011-05-04T16:38:26Z</time>
      </trkpt>
      <trkpt lat="48.71552" lon="6.20125">
        <ele>372</ele>
        <time>2011-05-04T16:38:30Z</time>
      </trkpt>
      <trkpt lat="48.71509" lon="6.20141">
        <ele>368</ele>
        <time>2011-05-04T16:38:36Z</time>
      </trkpt>
      <trkpt lat="48.71457" lon="6.2022">
        <ele>359</ele>
        <time>2011-05-04T16:38:49Z</time>
      </trkpt>
      <trkpt lat="48.71451" lon="6.20235">
        <ele>357</ele>
        <time>2011-05-04T16:38:54Z</time>
      </trkpt>
      <trkpt lat="48.71448" lon="6.20261">
        <ele>352</ele>
        <time>2011-05-04T16:39:04Z</time>
      </trkpt>
      <trkpt lat="48.71451" lon="6.20323">
        <ele>342</ele>
        <time>2011-05-04T16:39:15Z</time>
      </trkpt>
      <trkpt lat="48.71463" lon="6.20378">
        <ele>337</ele>
        <time>2011-05-04T16:39:29Z</time>
      </trkpt>
      <trkpt lat="48.71489" lon="6.20406">
        <ele>351</ele>
        <time>2011-05-04T16:39:52Z</time>
      </trkpt>
      <trkpt lat="48.71509" lon="6.20432">
        <ele>361</ele>
        <time>2011-05-04T16:40:08Z</time>
      </trkpt>
      <trkpt lat="48.71542" lon="6.20462">
        <ele>366</ele>
        <time>2011-05-04T16:40:26Z</time>
      </trkpt>
      <trkpt lat="48.71558" lon="6.20486">
        <ele>366</ele>
        <time>2011-05-04T16:40:38Z</time>
      </trkpt>
      <trkpt lat="48.71568" lon="6.20503">
        <ele>364</ele>
        <time>2011-05-04T16:40:45Z</time>
      </trkpt>
      <trkpt lat="48.71587" lon="6.20543">
        <ele>364</ele>
        <time>2011-05-04T16:41:00Z</time>
      </trkpt>
      <trkpt lat="48.71604" lon="6.20581">
        <ele>367</ele>
        <time>2011-05-04T16:41:18Z</time>
      </trkpt>
      <trkpt lat="48.71605" lon="6.20605">
        <ele>370</ele>
        <time>2011-05-04T16:41:29Z</time>
      </trkpt>
      <trkpt lat="48.71622" lon="6.20639">
        <ele>369</ele>
        <time>2011-05-04T16:41:47Z</time>
      </trkpt>
      <trkpt lat="48.71634" lon="6.20666">
        <ele>371</ele>
        <time>2011-05-04T16:42:01Z</time>
      </trkpt>
      <trkpt lat="48.71643" lon="6.20704">
        <ele>371</ele>
        <time>2011-05-04T16:42:14Z</time>
      </trkpt>
      <trkpt lat="48.71643" lon="6.20739">
        <ele>370</ele>
        <time>2011-05-04T16:42:26Z</time>
      </trkpt>
      <trkpt lat="48.71641" lon="6.20762">
        <ele>365</ele>
        <time>2011-05-04T16:42:36Z</time>
      </trkpt>
      <trkpt lat="48.71649" lon="6.20774">
        <ele>364</ele>
        <time>2011-05-04T16:42:45Z</time>
      </trkpt>
      <trkpt lat="48.71655" lon="6.20795">
        <ele>369</ele>
        <time>2011-05-04T16:42:57Z</time>
      </trkpt>
      <trkpt lat="48.7165" lon="6.20838">
        <ele>376</ele>
        <time>2011-05-04T16:43:11Z</time>
      </trkpt>
      <trkpt lat="48.71648" lon="6.20889">
        <ele>379</ele>
        <time>2011-05-04T16:43:24Z</time>
      </trkpt>
      <trkpt lat="48.71645" lon="6.20916">
        <ele>379</ele>
        <time>2011-05-04T16:43:29Z</time>
      </trkpt>
      <trkpt lat="48.71643" lon="6.20947">
        <ele>380</ele>
        <time>2011-05-04T16:43:35Z</time>
      </trkpt>
      <trkpt lat="48.71644" lon="6.20971">
        <ele>383</ele>
        <time>2011-05-04T16:43:40Z</time>
      </trkpt>
      <trkpt lat="48.71638" lon="6.21004">
        <ele>385</ele>
        <time>2011-05-04T16:43:46Z</time>
      </trkpt>
      <trkpt lat="48.71633" lon="6.21028">
        <ele>384</ele>
        <time>2011-05-04T16:43:50Z</time>
      </trkpt>
      <trkpt lat="48.71621" lon="6.21101">
        <ele>384</ele>
        <time>2011-05-04T16:44:04Z</time>
      </trkpt>
      <trkpt lat="48.7162" lon="6.21168">
        <ele>385</ele>
        <time>2011-05-04T16:44:16Z</time>
      </trkpt>
      <trkpt lat="48.71631" lon="6.21232">
        <ele>382</ele>
        <time>2011-05-04T16:44:24Z</time>
      </trkpt>
      <trkpt lat="48.7166" lon="6.21277">
        <ele>384</ele>
        <time>2011-05-04T16:44:33Z</time>
      </trkpt>
      <trkpt lat="48.71674" lon="6.21289">
        <ele>386</ele>
        <time>2011-05-04T16:44:37Z</time>
      </trkpt>
      <trkpt lat="48.71688" lon="6.21305">
        <ele>387</ele>
        <time>2011-05-04T16:44:42Z</time>
      </trkpt>
      <trkpt lat="48.717" lon="6.21324">
        <ele>387</ele>
        <time>2011-05-04T16:44:48Z</time>
      </trkpt>
      <trkpt lat="48.71735" lon="6.21347">
        <ele>384</ele>
        <time>2011-05-04T16:45:05Z</time>
      </trkpt>
      <trkpt lat="48.71787" lon="6.2138">
        <ele>389</ele>
        <time>2011-05-04T16:45:36Z</time>
      </trkpt>
      <trkpt lat="48.718" lon="6.21358">
        <ele>386</ele>
        <time>2011-05-04T16:45:55Z</time>
      </trkpt>
      <trkpt lat="48.71801" lon="6.2132">
        <ele>382</ele>
        <time>2011-05-04T16:46:05Z</time>
      </trkpt>
      <trkpt lat="48.71801" lon="6.21287">
        <ele>381</ele>
        <time>2011-05-04T16:46:16Z</time>
      </trkpt>
      <trkpt lat="48.71811" lon="6.21276">
        <ele>379</ele>
        <time>2011-05-04T16:47:02Z</time>
      </trkpt>
      <trkpt lat="48.71817" lon="6.21265">
        <ele>373</ele>
        <time>2011-05-04T16:47:24Z</time>
      </trkpt>
      <trkpt lat="48.71822" lon="6.21253">
        <ele>371</ele>
        <time>2011-05-04T16:48:14Z</time>
      </trkpt>
      <trkpt lat="48.71828" lon="6.21283">
        <ele>360</ele>
        <time>2011-05-04T16:49:18Z</time>
      </trkpt>
      <trkpt lat="48.71842" lon="6.2147">
        <ele>375</ele>
        <time>2011-05-04T16:49:50Z</time>
      </trkpt>
      <trkpt lat="48.71839" lon="6.21493">
        <ele>376</ele>
        <time>2011-05-04T16:49:54Z</time>
      </trkpt>
      <trkpt lat="48.71834" lon="6.21518">
        <ele>376</ele>
        <time>2011-05-04T16:49:59Z</time>
      </trkpt>
      <trkpt lat="48.71828" lon="6.21572">
        <ele>378</ele>
        <time>2011-05-04T16:50:12Z</time>
      </trkpt>
      <trkpt lat="48.71832" lon="6.21595">
        <ele>377</ele>
        <time>2011-05-04T16:50:17Z</time>
      </trkpt>
      <trkpt lat="48.71839" lon="6.21607">
        <ele>378</ele>
        <time>2011-05-04T16:50:21Z</time>
      </trkpt>
      <trkpt lat="48.71854" lon="6.21619">
        <ele>378</ele>
        <time>2011-05-04T16:50:27Z</time>
      </trkpt>
      <trkpt lat="48.7187" lon="6.21611">
        <ele>378</ele>
        <time>2011-05-04T16:50:34Z</time>
      </trkpt>
      <trkpt lat="48.7188" lon="6.21607">
        <ele>380</ele>
        <time>2011-05-04T16:50:41Z</time>
      </trkpt>
      <trkpt lat="48.71899" lon="6.21607">
        <ele>381</ele>
        <time>2011-05-04T16:50:46Z</time>
      </trkpt>
      <trkpt lat="48.71926" lon="6.21609">
        <ele>379</ele>
        <time>2011-05-04T16:50:52Z</time>
      </trkpt>
      <trkpt lat="48.71961" lon="6.21623">
        <ele>374</ele>
        <time>2011-05-04T16:51:03Z</time>
      </trkpt>
      <trkpt lat="48.72021" lon="6.21642">
        <ele>378</ele>
        <time>2011-05-04T16:51:22Z</time>
      </trkpt>
      <trkpt lat="48.72035" lon="6.21653">
        <ele>378</ele>
        <time>2011-05-04T16:51:26Z</time>
      </trkpt>
      <trkpt lat="48.7206" lon="6.21688">
        <ele>380</ele>
        <time>2011-05-04T16:51:34Z</time>
      </trkpt>
      <trkpt lat="48.72092" lon="6.21719">
        <ele>380</ele>
        <time>2011-05-04T16:51:42Z</time>
      </trkpt>
      <trkpt lat="48.72098" lon="6.21744">
        <ele>382</ele>
        <time>2011-05-04T16:51:47Z</time>
      </trkpt>
      <trkpt lat="48.7211" lon="6.21759">
        <ele>382</ele>
        <time>2011-05-04T16:51:53Z</time>
      </trkpt>
      <trkpt lat="48.72127" lon="6.21757">
        <ele>382</ele>
        <time>2011-05-04T16:51:58Z</time>
      </trkpt>
      <trkpt lat="48.72128" lon="6.21782">
        <ele>383</ele>
        <time>2011-05-04T16:52:04Z</time>
      </trkpt>
      <trkpt lat="48.72136" lon="6.21804">
        <ele>385</ele>
        <time>2011-05-04T16:52:10Z</time>
      </trkpt>
      <trkpt lat="48.72167" lon="6.2185">
        <ele>391</ele>
        <time>2011-05-04T16:52:22Z</time>
      </trkpt>
      <trkpt lat="48.72184" lon="6.21852">
        <ele>390</ele>
        <time>2011-05-04T16:52:25Z</time>
      </trkpt>
      <trkpt lat="48.72243" lon="6.2185">
        <ele>386</ele>
        <time>2011-05-04T16:52:36Z</time>
      </trkpt>
      <trkpt lat="48.72261" lon="6.21847">
        <ele>386</ele>
        <time>2011-05-04T16:52:40Z</time>
      </trkpt>
      <trkpt lat="48.72437" lon="6.2183">
        <ele>398</ele>
        <time>2011-05-04T16:53:18Z</time>
      </trkpt>
      <trkpt lat="48.725" lon="6.21819">
        <ele>398</ele>
        <time>2011-05-04T16:53:31Z</time>
      </trkpt>
      <trkpt lat="48.72516" lon="6.21815">
        <ele>397</ele>
        <time>2011-05-04T16:53:35Z</time>
      </trkpt>
      <trkpt lat="48.72551" lon="6.21809">
        <ele>399</ele>
        <time>2011-05-04T16:53:43Z</time>
      </trkpt>
      <trkpt lat="48.72567" lon="6.21806">
        <ele>399</ele>
        <time>2011-05-04T16:53:46Z</time>
      </trkpt>
      <trkpt lat="48.72619" lon="6.21804">
        <ele>403</ele>
        <time>2011-05-04T16:54:00Z</time>
      </trkpt>
      <trkpt lat="48.72681" lon="6.21806">
        <ele>399</ele>
        <time>2011-05-04T16:54:13Z</time>
      </trkpt>
      <trkpt lat="48.72695" lon="6.21817">
        <ele>397</ele>
        <time>2011-05-04T16:54:16Z</time>
      </trkpt>
      <trkpt lat="48.72706" lon="6.2184">
        <ele>397</ele>
        <time>2011-05-04T16:54:20Z</time>
      </trkpt>
      <trkpt lat="48.72722" lon="6.21885">
        <ele>394</ele>
        <time>2011-05-04T16:54:29Z</time>
      </trkpt>
      <trkpt lat="48.72725" lon="6.21899">
        <ele>394</ele>
        <time>2011-05-04T16:54:34Z</time>
      </trkpt>
      <trkpt lat="48.72731" lon="6.2192">
        <ele>396</ele>
        <time>2011-05-04T16:54:38Z</time>
      </trkpt>
      <trkpt lat="48.72738" lon="6.21947">
        <ele>397</ele>
        <time>2011-05-04T16:54:42Z</time>
      </trkpt>
      <trkpt lat="48.72774" lon="6.21957">
        <ele>396</ele>
        <time>2011-05-04T16:54:56Z</time>
      </trkpt>
      <trkpt lat="48.72806" lon="6.21915">
        <ele>397</ele>
        <time>2011-05-04T16:55:05Z</time>
      </trkpt>
      <trkpt lat="48.72828" lon="6.2186">
        <ele>399</ele>
        <time>2011-05-04T16:55:12Z</time>
      </trkpt>
      <trkpt lat="48.72855" lon="6.21802">
        <ele>401</ele>
        <time>2011-05-04T16:55:19Z</time>
      </trkpt>
      <trkpt lat="48.7293" lon="6.21652">
        <ele>388</ele>
        <time>2011-05-04T16:55:37Z</time>
      </trkpt>
      <trkpt lat="48.72954" lon="6.21596">
        <ele>389</ele>
        <time>2011-05-04T16:55:45Z</time>
      </trkpt>
      <trkpt lat="48.72991" lon="6.21515">
        <ele>386</ele>
        <time>2011-05-04T16:55:54Z</time>
      </trkpt>
      <trkpt lat="48.73003" lon="6.21454">
        <ele>382</ele>
        <time>2011-05-04T16:56:03Z</time>
      </trkpt>
      <trkpt lat="48.72999" lon="6.21421">
        <ele>381</ele>
        <time>2011-05-04T16:56:16Z</time>
      </trkpt>
      <trkpt lat="48.72992" lon="6.21394">
        <ele>380</ele>
        <time>2011-05-04T16:57:05Z</time>
      </trkpt>
      <trkpt lat="48.72993" lon="6.2138">
        <ele>383</ele>
        <time>2011-05-04T16:57:42Z</time>
      </trkpt>
      <trkpt lat="48.73002" lon="6.21376">
        <ele>385</ele>
        <time>2011-05-04T16:57:46Z</time>
      </trkpt>
      <trkpt lat="48.73007" lon="6.21351">
        <ele>388</ele>
        <time>2011-05-04T16:57:57Z</time>
      </trkpt>
      <trkpt lat="48.73042" lon="6.21229">
        <ele>387</ele>
        <time>2011-05-04T16:58:17Z</time>
      </trkpt>
      <trkpt lat="48.73074" lon="6.21166">
        <ele>386</ele>
        <time>2011-05-04T16:58:28Z</time>
      </trkpt>
      <trkpt lat="48.7309" lon="6.2113">
        <ele>383</ele>
        <time>2011-05-04T16:58:37Z</time>
      </trkpt>
      <trkpt lat="48.73123" lon="6.21054">
        <ele>384</ele>
        <time>2011-05-04T16:58:52Z</time>
      </trkpt>
      <trkpt lat="48.73167" lon="6.20967">
        <ele>377</ele>
        <time>2011-05-04T16:59:12Z</time>
      </trkpt>
      <trkpt lat="48.73188" lon="6.20917">
        <ele>379</ele>
        <time>2011-05-04T16:59:21Z</time>
      </trkpt>
      <trkpt lat="48.73219" lon="6.20866">
        <ele>380</ele>
        <time>2011-05-04T16:59:32Z</time>
      </trkpt>
      <trkpt lat="48.7323" lon="6.20848">
        <ele>379</ele>
        <time>2011-05-04T16:59:36Z</time>
      </trkpt>
      <trkpt lat="48.73253" lon="6.20812">
        <ele>373</ele>
        <time>2011-05-04T16:59:54Z</time>
      </trkpt>
      <trkpt lat="48.73278" lon="6.20764">
        <ele>375</ele>
        <time>2011-05-04T17:00:05Z</time>
      </trkpt>
      <trkpt lat="48.7334" lon="6.20621">
        <ele>375</ele>
        <time>2011-05-04T17:00:32Z</time>
      </trkpt>
      <trkpt lat="48.73383" lon="6.2052">
        <ele>367</ele>
        <time>2011-05-04T17:00:48Z</time>
      </trkpt>
      <trkpt lat="48.73434" lon="6.20446">
        <ele>365</ele>
        <time>2011-05-04T17:01:05Z</time>
      </trkpt>
      <trkpt lat="48.73459" lon="6.20388">
        <ele>369</ele>
        <time>2011-05-04T17:01:16Z</time>
      </trkpt>
      <trkpt lat="48.73538" lon="6.20209">
        <ele>365</ele>
        <time>2011-05-04T17:01:49Z</time>
      </trkpt>
      <trkpt lat="48.73559" lon="6.20149">
        <ele>361</ele>
        <time>2011-05-04T17:01:59Z</time>
      </trkpt>
      <trkpt lat="48.73588" lon="6.20093">
        <ele>362</ele>
        <time>2011-05-04T17:02:06Z</time>
      </trkpt>
      <trkpt lat="48.7368" lon="6.19875">
        <ele>354</ele>
        <time>2011-05-04T17:02:41Z</time>
      </trkpt>
      <trkpt lat="48.73744" lon="6.19741">
        <ele>352</ele>
        <time>2011-05-04T17:03:12Z</time>
      </trkpt>
      <trkpt lat="48.73761" lon="6.19628">
        <ele>343</ele>
        <time>2011-05-04T17:03:42Z</time>
      </trkpt>
      <trkpt lat="48.73751" lon="6.19631">
        <ele>345</ele>
        <time>2011-05-04T17:04:56Z</time>
      </trkpt>
      <trkpt lat="48.73775" lon="6.19609">
        <ele>344</ele>
        <time>2011-05-04T17:05:21Z</time>
      </trkpt>
      <trkpt lat="48.73813" lon="6.19579">
        <ele>341</ele>
        <time>2011-05-04T17:05:34Z</time>
      </trkpt>
      <trkpt lat="48.73857" lon="6.19579">
        <ele>333</ele>
        <time>2011-05-04T17:05:48Z</time>
      </trkpt>
      <trkpt lat="48.73872" lon="6.19602">
        <ele>328</ele>
        <time>2011-05-04T17:05:58Z</time>
      </trkpt>
      <trkpt lat="48.73873" lon="6.1963">
        <ele>329</ele>
        <time>2011-05-04T17:06:07Z</time>
      </trkpt>
      <trkpt lat="48.73847" lon="6.19788">
        <ele>325</ele>
        <time>2011-05-04T17:06:36Z</time>
      </trkpt>
      <trkpt lat="48.73834" lon="6.19826">
        <ele>321</ele>
        <time>2011-05-04T17:06:42Z</time>
      </trkpt>
      <trkpt lat="48.73825" lon="6.1985">
        <ele>320</ele>
        <time>2011-05-04T17:06:46Z</time>
      </trkpt>
      <trkpt lat="48.73805" lon="6.19896">
        <ele>320</ele>
        <time>2011-05-04T17:06:54Z</time>
      </trkpt>
      <trkpt lat="48.73799" lon="6.19906">
        <ele>319</ele>
        <time>2011-05-04T17:06:56Z</time>
      </trkpt>
      <trkpt lat="48.73771" lon="6.19962">
        <ele>319</ele>
        <time>2011-05-04T17:07:08Z</time>
      </trkpt>
      <trkpt lat="48.73764" lon="6.19985">
        <ele>320</ele>
        <time>2011-05-04T17:07:12Z</time>
      </trkpt>
      <trkpt lat="48.73756" lon="6.20009">
        <ele>320</ele>
        <time>2011-05-04T17:07:16Z</time>
      </trkpt>
      <trkpt lat="48.73749" lon="6.20028">
        <ele>321</ele>
        <time>2011-05-04T17:07:19Z</time>
      </trkpt>
      <trkpt lat="48.73744" lon="6.2004">
        <ele>321</ele>
        <time>2011-05-04T17:07:21Z</time>
      </trkpt>
      <trkpt lat="48.73733" lon="6.20061">
        <ele>322</ele>
        <time>2011-05-04T17:07:25Z</time>
      </trkpt>
      <trkpt lat="48.73726" lon="6.20081">
        <ele>322</ele>
        <time>2011-05-04T17:07:29Z</time>
      </trkpt>
      <trkpt lat="48.73669" lon="6.20307">
        <ele>337</ele>
        <time>2011-05-04T17:08:03Z</time>
      </trkpt>
      <trkpt lat="48.73647" lon="6.20368">
        <ele>332</ele>
        <time>2011-05-04T17:08:10Z</time>
      </trkpt>
      <trkpt lat="48.73621" lon="6.20418">
        <ele>331</ele>
        <time>2011-05-04T17:08:18Z</time>
      </trkpt>
      <trkpt lat="48.73611" lon="6.20484">
        <ele>328</ele>
        <time>2011-05-04T17:08:29Z</time>
      </trkpt>
      <trkpt lat="48.73583" lon="6.20535">
        <ele>328</ele>
        <time>2011-05-04T17:08:36Z</time>
      </trkpt>
      <trkpt lat="48.73557" lon="6.20567">
        <ele>332</ele>
        <time>2011-05-04T17:08:43Z</time>
      </trkpt>
      <trkpt lat="48.73517" lon="6.20621">
        <ele>333</ele>
        <time>2011-05-04T17:08:56Z</time>
      </trkpt>
      <trkpt lat="48.73488" lon="6.20671">
        <ele>337</ele>
        <time>2011-05-04T17:09:05Z</time>
      </trkpt>
      <trkpt lat="48.73464" lon="6.2073">
        <ele>337</ele>
        <time>2011-05-04T17:09:14Z</time>
      </trkpt>
      <trkpt lat="48.73428" lon="6.20809">
        <ele>348</ele>
        <time>2011-05-04T17:09:27Z</time>
      </trkpt>
      <trkpt lat="48.73378" lon="6.20905">
        <ele>353</ele>
        <time>2011-05-04T17:09:44Z</time>
      </trkpt>
      <trkpt lat="48.73353" lon="6.2096">
        <ele>360</ele>
        <time>2011-05-04T17:09:55Z</time>
      </trkpt>
      <trkpt lat="48.73264" lon="6.21118">
        <ele>334</ele>
        <time>2011-05-04T17:10:22Z</time>
      </trkpt>
      <trkpt lat="48.73209" lon="6.21229">
        <ele>337</ele>
        <time>2011-05-04T17:10:36Z</time>
      </trkpt>
      <trkpt lat="48.73193" lon="6.21294">
        <ele>338</ele>
        <time>2011-05-04T17:10:44Z</time>
      </trkpt>
      <trkpt lat="48.73155" lon="6.21462">
        <ele>337</ele>
        <time>2011-05-04T17:11:05Z</time>
      </trkpt>
      <trkpt lat="48.7315" lon="6.21485">
        <ele>339</ele>
        <time>2011-05-04T17:11:08Z</time>
      </trkpt>
      <trkpt lat="48.73146" lon="6.21499">
        <ele>339</ele>
        <time>2011-05-04T17:11:10Z</time>
      </trkpt>
      <trkpt lat="48.73124" lon="6.21568">
        <ele>343</ele>
        <time>2011-05-04T17:11:20Z</time>
      </trkpt>
      <trkpt lat="48.73058" lon="6.21745">
        <ele>348</ele>
        <time>2011-05-04T17:11:44Z</time>
      </trkpt>
      <trkpt lat="48.73034" lon="6.21805">
        <ele>354</ele>
        <time>2011-05-04T17:11:52Z</time>
      </trkpt>
      <trkpt lat="48.72991" lon="6.21957">
        <ele>365</ele>
        <time>2011-05-04T17:12:20Z</time>
      </trkpt>
      <trkpt lat="48.7297" lon="6.22013">
        <ele>366</ele>
        <time>2011-05-04T17:12:31Z</time>
      </trkpt>
      <trkpt lat="48.72938" lon="6.22069">
        <ele>365</ele>
        <time>2011-05-04T17:12:44Z</time>
      </trkpt>
      <trkpt lat="48.72907" lon="6.22146">
        <ele>368</ele>
        <time>2011-05-04T17:13:01Z</time>
      </trkpt>
      <trkpt lat="48.72891" lon="6.22176">
        <ele>367</ele>
        <time>2011-05-04T17:13:08Z</time>
      </trkpt>
      <trkpt lat="48.72831" lon="6.22245">
        <ele>361</ele>
        <time>2011-05-04T17:13:23Z</time>
      </trkpt>
      <trkpt lat="48.72755" lon="6.22288">
        <ele>360</ele>
        <time>2011-05-04T17:13:40Z</time>
      </trkpt>
      <trkpt lat="48.72699" lon="6.22304">
        <ele>354</ele>
        <time>2011-05-04T17:13:52Z</time>
      </trkpt>
      <trkpt lat="48.72638" lon="6.22295">
        <ele>357</ele>
        <time>2011-05-04T17:14:04Z</time>
      </trkpt>
      <trkpt lat="48.72505" lon="6.22205">
        <ele>348</ele>
        <time>2011-05-04T17:14:29Z</time>
      </trkpt>
      <trkpt lat="48.72434" lon="6.22163">
        <ele>342</ele>
        <time>2011-05-04T17:14:43Z</time>
      </trkpt>
      <trkpt lat="48.72419" lon="6.22154">
        <ele>342</ele>
        <time>2011-05-04T17:14:47Z</time>
      </trkpt>
      <trkpt lat="48.72404" lon="6.22144">
        <ele>341</ele>
        <time>2011-05-04T17:14:50Z</time>
      </trkpt>
      <trkpt lat="48.72239" lon="6.22107">
        <ele>342</ele>
        <time>2011-05-04T17:15:21Z</time>
      </trkpt>
      <trkpt lat="48.72224" lon="6.2211">
        <ele>343</ele>
        <time>2011-05-04T17:15:24Z</time>
      </trkpt>
      <trkpt lat="48.72111" lon="6.22111">
        <ele>337</ele>
        <time>2011-05-04T17:15:49Z</time>
      </trkpt>
      <trkpt lat="48.72085" lon="6.22096">
        <ele>340</ele>
        <time>2011-05-04T17:16:02Z</time>
      </trkpt>
      <trkpt lat="48.72046" lon="6.22099">
        <ele>358</ele>
        <time>2011-05-04T17:16:29Z</time>
      </trkpt>
      <trkpt lat="48.71989" lon="6.22134">
        <ele>377</ele>
        <time>2011-05-04T17:16:54Z</time>
      </trkpt>
      <trkpt lat="48.71966" lon="6.22153">
        <ele>384</ele>
        <time>2011-05-04T17:17:08Z</time>
      </trkpt>
      <trkpt lat="48.71945" lon="6.22169">
        <ele>384</ele>
        <time>2011-05-04T17:17:14Z</time>
      </trkpt>
      <trkpt lat="48.71923" lon="6.22179">
        <ele>383</ele>
        <time>2011-05-04T17:17:19Z</time>
      </trkpt>
      <trkpt lat="48.71879" lon="6.2219">
        <ele>375</ele>
        <time>2011-05-04T17:17:39Z</time>
      </trkpt>
      <trkpt lat="48.71862" lon="6.22198">
        <ele>359</ele>
        <time>2011-05-04T17:18:01Z</time>
      </trkpt>
      <trkpt lat="48.71853" lon="6.22202">
        <ele>365</ele>
        <time>2011-05-04T17:19:55Z</time>
      </trkpt>
      <trkpt lat="48.71842" lon="6.22201">
        <ele>371</ele>
        <time>2011-05-04T17:20:21Z</time>
      </trkpt>
      <trkpt lat="48.71828" lon="6.22199">
        <ele>375</ele>
        <time>2011-05-04T17:20:59Z</time>
      </trkpt>
      <trkpt lat="48.71803" lon="6.22208">
        <ele>376</ele>
        <time>2011-05-04T17:21:10Z</time>
      </trkpt>
      <trkpt lat="48.71765" lon="6.22242">
        <ele>372</ele>
        <time>2011-05-04T17:21:19Z</time>
      </trkpt>
      <trkpt lat="48.71686" lon="6.22308">
        <ele>351</ele>
        <time>2011-05-04T17:21:39Z</time>
      </trkpt>
      <trkpt lat="48.71516" lon="6.22394">
        <ele>339</ele>
        <time>2011-05-04T17:22:10Z</time>
      </trkpt>
      <trkpt lat="48.71432" lon="6.22447">
        <ele>350</ele>
        <time>2011-05-04T17:22:23Z</time>
      </trkpt>
      <trkpt lat="48.71394" lon="6.22489">
        <ele>357</ele>
        <time>2011-05-04T17:22:30Z</time>
      </trkpt>
      <trkpt lat="48.71367" lon="6.22544">
        <ele>362</ele>
        <time>2011-05-04T17:22:39Z</time>
      </trkpt>
      <trkpt lat="48.71356" lon="6.22608">
        <ele>366</ele>
        <time>2011-05-04T17:22:49Z</time>
      </trkpt>
      <trkpt lat="48.71362" lon="6.22671">
        <ele>368</ele>
        <time>2011-05-04T17:22:56Z</time>
      </trkpt>
      <trkpt lat="48.71367" lon="6.2274">
        <ele>364</ele>
        <time>2011-05-04T17:23:04Z</time>
      </trkpt>
      <trkpt lat="48.71367" lon="6.22803">
        <ele>364</ele>
        <time>2011-05-04T17:23:13Z</time>
      </trkpt>
      <trkpt lat="48.7137" lon="6.22876">
        <ele>358</ele>
        <time>2011-05-04T17:23:25Z</time>
      </trkpt>
      <trkpt lat="48.71392" lon="6.22929">
        <ele>357</ele>
        <time>2011-05-04T17:23:38Z</time>
      </trkpt>
      <trkpt lat="48.71411" lon="6.22988">
        <ele>361</ele>
        <time>2011-05-04T17:23:54Z</time>
      </trkpt>
      <trkpt lat="48.71435" lon="6.23034">
        <ele>360</ele>
        <time>2011-05-04T17:24:04Z</time>
      </trkpt>
      <trkpt lat="48.71474" lon="6.23108">
        <ele>350</ele>
        <time>2011-05-04T17:24:19Z</time>
      </trkpt>
      <trkpt lat="48.71521" lon="6.23112">
        <ele>341</ele>
        <time>2011-05-04T17:24:30Z</time>
      </trkpt>
      <trkpt lat="48.7158" lon="6.23112">
        <ele>335</ele>
        <time>2011-05-04T17:24:52Z</time>
      </trkpt>
      <trkpt lat="48.71638" lon="6.23113">
        <ele>346</ele>
        <time>2011-05-04T17:25:04Z</time>
      </trkpt>
      <trkpt lat="48.71656" lon="6.23115">
        <ele>347</ele>
        <time>2011-05-04T17:25:06Z</time>
      </trkpt>
      <trkpt lat="48.71731" lon="6.23124">
        <ele>346</ele>
        <time>2011-05-04T17:25:12Z</time>
      </trkpt>
      <trkpt lat="48.71827" lon="6.23136">
        <ele>328</ele>
        <time>2011-05-04T17:25:27Z</time>
      </trkpt>
      <trkpt lat="48.71833" lon="6.23118">
        <ele>324</ele>
        <time>2011-05-04T17:25:31Z</time>
      </trkpt>
      <trkpt lat="48.71859" lon="6.23028">
        <ele>318</ele>
        <time>2011-05-04T17:25:52Z</time>
      </trkpt>
      <trkpt lat="48.71893" lon="6.22911">
        <ele>329</ele>
        <time>2011-05-04T17:26:23Z</time>
      </trkpt>
      <trkpt lat="48.71907" lon="6.22847">
        <ele>333</ele>
        <time>2011-05-04T17:26:33Z</time>
      </trkpt>
      <trkpt lat="48.71917" lon="6.22758">
        <ele>342</ele>
        <time>2011-05-04T17:26:47Z</time>
      </trkpt>
      <trkpt lat="48.71914" lon="6.22722">
        <ele>343</ele>
        <time>2011-05-04T17:26:53Z</time>
      </trkpt>
      <trkpt lat="48.7191" lon="6.22659">
        <ele>348</ele>
        <time>2011-05-04T17:27:07Z</time>
      </trkpt>
      <trkpt lat="48.71877" lon="6.22498">
        <ele>374</ele>
        <time>2011-05-04T17:27:46Z</time>
      </trkpt>
      <trkpt lat="48.71877" lon="6.22435">
        <ele>374</ele>
        <time>2011-05-04T17:27:55Z</time>
      </trkpt>
      <trkpt lat="48.71883" lon="6.22304">
        <ele>382</ele>
        <time>2011-05-04T17:28:18Z</time>
      </trkpt>
      <trkpt lat="48.71886" lon="6.22279">
        <ele>378</ele>
        <time>2011-05-04T17:28:24Z</time>
      </trkpt>
      <trkpt lat="48.71875" lon="6.22213">
        <ele>375</ele>
        <time>2011-05-04T17:28:35Z</time>
      </trkpt>
      <trkpt lat="48.71866" lon="6.22162">
        <ele>379</ele>
        <time>2011-05-04T17:28:50Z</time>
      </trkpt>
      <trkpt lat="48.71859" lon="6.22109">
        <ele>354</ele>
        <time>2011-05-04T17:30:00Z</time>
      </trkpt>
      <trkpt lat="48.71858" lon="6.22068">
        <ele>373</ele>
        <time>2011-05-04T17:30:32Z</time>
      </trkpt>
      <trkpt lat="48.71836" lon="6.21913">
        <ele>375</ele>
        <time>2011-05-04T17:31:15Z</time>
      </trkpt>
      <trkpt lat="48.71831" lon="6.21867">
        <ele>379</ele>
        <time>2011-05-04T17:31:25Z</time>
      </trkpt>
      <trkpt lat="48.71825" lon="6.21711">
        <ele>387</ele>
        <time>2011-05-04T17:31:54Z</time>
      </trkpt>
      <trkpt lat="48.71831" lon="6.21646">
        <ele>384</ele>
        <time>2011-05-04T17:32:06Z</time>
      </trkpt>
      <trkpt lat="48.71835" lon="6.21621">
        <ele>381</ele>
        <time>2011-05-04T17:32:11Z</time>
      </trkpt>
      <trkpt lat="48.71849" lon="6.21512">
        <ele>375</ele>
        <time>2011-05-04T17:32:32Z</time>
      </trkpt>
      <trkpt lat="48.71851" lon="6.21489">
        <ele>375</ele>
        <time>2011-05-04T17:32:36Z</time>
      </trkpt>
      <trkpt lat="48.71853" lon="6.21466">
        <ele>374</ele>
        <time>2011-05-04T17:32:40Z</time>
      </trkpt>
      <trkpt lat="48.71853" lon="6.21448">
        <ele>374</ele>
        <time>2011-05-04T17:32:43Z</time>
      </trkpt>
      <trkpt lat="48.71852" lon="6.21402">
        <ele>376</ele>
        <time>2011-05-04T17:32:51Z</time>
      </trkpt>
      <trkpt lat="48.71851" lon="6.21374">
        <ele>376</ele>
        <time>2011-05-04T17:32:56Z</time>
      </trkpt>
      <trkpt lat="48.71861" lon="6.21276">
        <ele>383</ele>
        <time>2011-05-04T17:33:16Z</time>
      </trkpt>
      <trkpt lat="48.71865" lon="6.21247">
        <ele>383</ele>
        <time>2011-05-04T17:33:20Z</time>
      </trkpt>
      <trkpt lat="48.71867" lon="6.21219">
        <ele>382</ele>
        <time>2011-05-04T17:33:24Z</time>
      </trkpt>
      <trkpt lat="48.71879" lon="6.20988">
        <ele>376</ele>
        <time>2011-05-04T17:33:56Z</time>
      </trkpt>
      <trkpt lat="48.71876" lon="6.20961">
        <ele>376</ele>
        <time>2011-05-04T17:34:00Z</time>
      </trkpt>
      <trkpt lat="48.71873" lon="6.20949">
        <ele>375</ele>
        <time>2011-05-04T17:34:02Z</time>
      </trkpt>
      <trkpt lat="48.71871" lon="6.20932">
        <ele>375</ele>
        <time>2011-05-04T17:34:05Z</time>
      </trkpt>
      <trkpt lat="48.71882" lon="6.20915">
        <ele>375</ele>
        <time>2011-05-04T17:34:12Z</time>
      </trkpt>
      <trkpt lat="48.71897" lon="6.20906">
        <ele>376</ele>
        <time>2011-05-04T17:34:17Z</time>
      </trkpt>
      <trkpt lat="48.7191" lon="6.20897">
        <ele>376</ele>
        <time>2011-05-04T17:34:22Z</time>
      </trkpt>
      <trkpt lat="48.71943" lon="6.20876">
        <ele>380</ele>
        <time>2011-05-04T17:34:35Z</time>
      </trkpt>
      <trkpt lat="48.71962" lon="6.2082">
        <ele>383</ele>
        <time>2011-05-04T17:34:55Z</time>
      </trkpt>
      <trkpt lat="48.71957" lon="6.20804">
        <ele>383</ele>
        <time>2011-05-04T17:35:00Z</time>
      </trkpt>
      <trkpt lat="48.71934" lon="6.20743">
        <ele>388</ele>
        <time>2011-05-04T17:35:18Z</time>
      </trkpt>
      <trkpt lat="48.71935" lon="6.2072">
        <ele>387</ele>
        <time>2011-05-04T17:35:23Z</time>
      </trkpt>
      <trkpt lat="48.71943" lon="6.20696">
        <ele>384</ele>
        <time>2011-05-04T17:35:29Z</time>
      </trkpt>
      <trkpt lat="48.71962" lon="6.20675">
        <ele>384</ele>
        <time>2011-05-04T17:35:39Z</time>
      </trkpt>
      <trkpt lat="48.7198" lon="6.20664">
        <ele>384</ele>
        <time>2011-05-04T17:35:46Z</time>
      </trkpt>
      <trkpt lat="48.71999" lon="6.2065">
        <ele>386</ele>
        <time>2011-05-04T17:35:53Z</time>
      </trkpt>
      <trkpt lat="48.72014" lon="6.20636">
        <ele>385</ele>
        <time>2011-05-04T17:35:58Z</time>
      </trkpt>
      <trkpt lat="48.72018" lon="6.20569">
        <ele>384</ele>
        <time>2011-05-04T17:36:10Z</time>
      </trkpt>
      <trkpt lat="48.71998" lon="6.2036">
        <ele>385</ele>
        <time>2011-05-04T17:36:45Z</time>
      </trkpt>
      <trkpt lat="48.7198" lon="6.20229">
        <ele>383</ele>
        <time>2011-05-04T17:37:05Z</time>
      </trkpt>
      <trkpt lat="48.71971" lon="6.20202">
        <ele>384</ele>
        <time>2011-05-04T17:37:09Z</time>
      </trkpt>
      <trkpt lat="48.71953" lon="6.20163">
        <ele>384</ele>
        <time>2011-05-04T17:37:18Z</time>
      </trkpt>
      <trkpt lat="48.71956" lon="6.20117">
        <ele>384</ele>
        <time>2011-05-04T17:37:26Z</time>
      </trkpt>
      <trkpt lat="48.71964" lon="6.20049">
        <ele>387</ele>
        <time>2011-05-04T17:37:35Z</time>
      </trkpt>
      <trkpt lat="48.71973" lon="6.20025">
        <ele>387</ele>
        <time>2011-05-04T17:37:40Z</time>
      </trkpt>
      <trkpt lat="48.71988" lon="6.20005">
        <ele>386</ele>
        <time>2011-05-04T17:37:46Z</time>
      </trkpt>
      <trkpt lat="48.72019" lon="6.19957">
        <ele>384</ele>
        <time>2011-05-04T17:37:59Z</time>
      </trkpt>
      <trkpt lat="48.72071" lon="6.19923">
        <ele>379</ele>
        <time>2011-05-04T17:38:14Z</time>
      </trkpt>
      <trkpt lat="48.72081" lon="6.1991">
        <ele>379</ele>
        <time>2011-05-04T17:38:43Z</time>
      </trkpt>
      <trkpt lat="48.72095" lon="6.19895">
        <ele>374</ele>
        <time>2011-05-04T17:39:09Z</time>
      </trkpt>
      <trkpt lat="48.721" lon="6.19863">
        <ele>379</ele>
        <time>2011-05-04T17:39:18Z</time>
      </trkpt>
      <trkpt lat="48.72126" lon="6.19752">
        <ele>394</ele>
        <time>2011-05-04T17:39:40Z</time>
      </trkpt>
      <trkpt lat="48.7214" lon="6.19734">
        <ele>395</ele>
        <time>2011-05-04T17:39:44Z</time>
      </trkpt>
      <trkpt lat="48.72177" lon="6.19698">
        <ele>396</ele>
        <time>2011-05-04T17:39:52Z</time>
      </trkpt>
      <trkpt lat="48.72271" lon="6.19626">
        <ele>391</ele>
        <time>2011-05-04T17:40:08Z</time>
      </trkpt>
      <trkpt lat="48.72323" lon="6.19582">
        <ele>387</ele>
        <time>2011-05-04T17:40:17Z</time>
      </trkpt>
      <trkpt lat="48.7235" lon="6.19559">
        <ele>387</ele>
        <time>2011-05-04T17:40:21Z</time>
      </trkpt>
      <trkpt lat="48.72445" lon="6.1946">
        <ele>379</ele>
        <time>2011-05-04T17:40:35Z</time>
      </trkpt>
      <trkpt lat="48.72539" lon="6.19362">
        <ele>376</ele>
        <time>2011-05-04T17:40:51Z</time>
      </trkpt>
      <trkpt lat="48.72738" lon="6.19173">
        <ele>363</ele>
        <time>2011-05-04T17:41:22Z</time>
      </trkpt>
      <trkpt lat="48.72752" lon="6.1916">
        <ele>362</ele>
        <time>2011-05-04T17:41:24Z</time>
      </trkpt>
      <trkpt lat="48.72766" lon="6.19147">
        <ele>362</ele>
        <time>2011-05-04T17:41:26Z</time>
      </trkpt>
      <trkpt lat="48.72847" lon="6.19065">
        <ele>355</ele>
        <time>2011-05-04T17:41:38Z</time>
      </trkpt>
      <trkpt lat="48.72865" lon="6.19047">
        <ele>355</ele>
        <time>2011-05-04T17:41:41Z</time>
      </trkpt>
      <trkpt lat="48.72881" lon="6.19046">
        <ele>355</ele>
        <time>2011-05-04T17:41:44Z</time>
      </trkpt>
      <trkpt lat="48.72891" lon="6.19049">
        <ele>354</ele>
        <time>2011-05-04T17:41:47Z</time>
      </trkpt>
      <trkpt lat="48.72916" lon="6.19036">
        <ele>357</ele>
        <time>2011-05-04T17:41:54Z</time>
      </trkpt>
      <trkpt lat="48.72941" lon="6.19023">
        <ele>359</ele>
        <time>2011-05-04T17:42:01Z</time>
      </trkpt>
      <trkpt lat="48.72956" lon="6.19012">
        <ele>359</ele>
        <time>2011-05-04T17:42:05Z</time>
      </trkpt>
      <trkpt lat="48.73026" lon="6.18933">
        <ele>363</ele>
        <time>2011-05-04T17:42:23Z</time>
      </trkpt>
      <trkpt lat="48.73064" lon="6.18897">
        <ele>359</ele>
        <time>2011-05-04T17:42:30Z</time>
      </trkpt>
      <trkpt lat="48.73081" lon="6.18893">
        <ele>355</ele>
        <time>2011-05-04T17:42:35Z</time>
      </trkpt>
      <trkpt lat="48.73127" lon="6.18873">
        <ele>347</ele>
        <time>2011-05-04T17:42:56Z</time>
      </trkpt>
      <trkpt lat="48.73136" lon="6.18851">
        <ele>347</ele>
        <time>2011-05-04T17:42:59Z</time>
      </trkpt>
      <trkpt lat="48.73136" lon="6.18805">
        <ele>347</ele>
        <time>2011-05-04T17:43:04Z</time>
      </trkpt>
      <trkpt lat="48.73117" lon="6.18765">
        <ele>347</ele>
        <time>2011-05-04T17:43:13Z</time>
      </trkpt>
      <trkpt lat="48.73108" lon="6.1874">
        <ele>346</ele>
        <time>2011-05-04T17:43:20Z</time>
      </trkpt>
      <trkpt lat="48.73103" lon="6.18729">
        <ele>344</ele>
        <time>2011-05-04T17:43:26Z</time>
      </trkpt>
      <trkpt lat="48.73087" lon="6.1872">
        <ele>339</ele>
        <time>2011-05-04T17:43:41Z</time>
      </trkpt>
      <trkpt lat="48.7307" lon="6.18716">
        <ele>336</ele>
        <time>2011-05-04T17:43:59Z</time>
      </trkpt>
      <trkpt lat="48.73027" lon="6.18733">
        <ele>342</ele>
        <time>2011-05-04T17:44:15Z</time>
      </trkpt>
      <trkpt lat="48.72982" lon="6.18748">
        <ele>339</ele>
        <time>2011-05-04T17:44:23Z</time>
      </trkpt>
      <trkpt lat="48.72943" lon="6.18772">
        <ele>341</ele>
        <time>2011-05-04T17:44:32Z</time>
      </trkpt>
      <trkpt lat="48.72897" lon="6.18793">
        <ele>341</ele>
        <time>2011-05-04T17:44:42Z</time>
      </trkpt>
      <trkpt lat="48.72857" lon="6.18814">
        <ele>337</ele>
        <time>2011-05-04T17:44:51Z</time>
      </trkpt>
      <trkpt lat="48.72834" lon="6.1882">
        <ele>328</ele>
        <time>2011-05-04T17:45:07Z</time>
      </trkpt>
      <trkpt lat="48.72825" lon="6.1882">
        <ele>317</ele>
        <time>2011-05-04T17:45:49Z</time>
      </trkpt>
      <trkpt lat="48.72809" lon="6.18839">
        <ele>314</ele>
        <time>2011-05-04T17:46:14Z</time>
      </trkpt>
      <trkpt lat="48.72753" lon="6.18877">
        <ele>331</ele>
        <time>2011-05-04T17:46:40Z</time>
      </trkpt>
      <trkpt lat="48.7271" lon="6.18877">
        <ele>331</ele>
        <time>2011-05-04T17:46:49Z</time>
      </trkpt>
      <trkpt lat="48.72666" lon="6.18888">
        <ele>325</ele>
        <time>2011-05-04T17:46:57Z</time>
      </trkpt>
      <trkpt lat="48.72626" lon="6.18914">
        <ele>284</ele>
        <time>2011-05-04T17:47:11Z</time>
      </trkpt>
      <trkpt lat="48.72579" lon="6.18955">
        <ele>253</ele>
        <time>2011-05-04T17:47:34Z</time>
      </trkpt>
      <trkpt lat="48.72516" lon="6.1896">
        <ele>292</ele>
        <time>2011-05-04T17:47:43Z</time>
      </trkpt>
      <trkpt lat="48.72464" lon="6.18975">
        <ele>317</ele>
        <time>2011-05-04T17:47:54Z</time>
      </trkpt>
      <trkpt lat="48.72445" lon="6.18993">
        <ele>323</ele>
        <time>2011-05-04T17:48:05Z</time>
      </trkpt>
      <trkpt lat="48.72411" lon="6.19052">
        <ele>326</ele>
        <time>2011-05-04T17:48:29Z</time>
      </trkpt>
      <trkpt lat="48.72373" lon="6.1911">
        <ele>334</ele>
        <time>2011-05-04T17:49:01Z</time>
      </trkpt>
      <trkpt lat="48.7232" lon="6.192">
        <ele>343</ele>
        <time>2011-05-04T17:49:44Z</time>
      </trkpt>
      <trkpt lat="48.72293" lon="6.19249">
        <ele>347</ele>
        <time>2011-05-04T17:50:05Z</time>
      </trkpt>
      <trkpt lat="48.72293" lon="6.19308">
        <ele>350</ele>
        <time>2011-05-04T17:50:54Z</time>
      </trkpt>
      <trkpt lat="48.72335" lon="6.19338">
        <ele>361</ele>
        <time>2011-05-04T17:51:33Z</time>
      </trkpt>
      <trkpt lat="48.72347" lon="6.19354">
        <ele>362</ele>
        <time>2011-05-04T17:51:42Z</time>
      </trkpt>
      <trkpt lat="48.72356" lon="6.19373">
        <ele>362</ele>
        <time>2011-05-04T17:51:52Z</time>
      </trkpt>
      <trkpt lat="48.72388" lon="6.19456">
        <ele>373</ele>
        <time>2011-05-04T17:52:36Z</time>
      </trkpt>
      <trkpt lat="48.72394" lon="6.19483">
        <ele>374</ele>
        <time>2011-05-04T17:52:48Z</time>
      </trkpt>
      <trkpt lat="48.72401" lon="6.19505">
        <ele>372</ele>
        <time>2011-05-04T17:53:02Z</time>
      </trkpt>
      <trkpt lat="48.72414" lon="6.19514">
        <ele>362</ele>
        <time>2011-05-04T17:54:07Z</time>
      </trkpt>
      <trkpt lat="48.7241" lon="6.19528">
        <ele>359</ele>
        <time>2011-05-04T17:56:03Z</time>
      </trkpt>
      <trkpt lat="48.72404" lon="6.19538">
        <ele>365</ele>
        <time>2011-05-04T17:56:48Z</time>
      </trkpt>
      <trkpt lat="48.72311" lon="6.19598">
        <ele>377</ele>
        <time>2011-05-04T17:57:22Z</time>
      </trkpt>
      <trkpt lat="48.7226" lon="6.19635">
        <ele>385</ele>
        <time>2011-05-04T17:57:38Z</time>
      </trkpt>
      <trkpt lat="48.72123" lon="6.19742">
        <ele>390</ele>
        <time>2011-05-04T17:58:11Z</time>
      </trkpt>
      <trkpt lat="48.72066" lon="6.19788">
        <ele>385</ele>
        <time>2011-05-04T17:58:27Z</time>
      </trkpt>
      <trkpt lat="48.72006" lon="6.1984">
        <ele>385</ele>
        <time>2011-05-04T17:58:45Z</time>
      </trkpt>
      <trkpt lat="48.71977" lon="6.19871">
        <ele>387</ele>
        <time>2011-05-04T17:59:01Z</time>
      </trkpt>
      <trkpt lat="48.71946" lon="6.19935">
        <ele>384</ele>
        <time>2011-05-04T17:59:16Z</time>
      </trkpt>
      <trkpt lat="48.71931" lon="6.19942">
        <ele>384</ele>
        <time>2011-05-04T17:59:20Z</time>
      </trkpt>
      <trkpt lat="48.71895" lon="6.19904">
        <ele>385</ele>
        <time>2011-05-04T17:59:34Z</time>
      </trkpt>
      <trkpt lat="48.7187" lon="6.19889">
        <ele>383</ele>
        <time>2011-05-04T17:59:37Z</time>
      </trkpt>
      <trkpt lat="48.71791" lon="6.19826">
        <ele>381</ele>
        <time>2011-05-04T17:59:57Z</time>
      </trkpt>
      <trkpt lat="48.71761" lon="6.19808">
        <ele>375</ele>
        <time>2011-05-04T18:00:19Z</time>
      </trkpt>
      <trkpt lat="48.71742" lon="6.19781">
        <ele>373</ele>
        <time>2011-05-04T18:00:35Z</time>
      </trkpt>
      <trkpt lat="48.7171" lon="6.19744">
        <ele>361</ele>
        <time>2011-05-04T18:01:06Z</time>
      </trkpt>
      <trkpt lat="48.71693" lon="6.19732">
        <ele>367</ele>
        <time>2011-05-04T18:01:11Z</time>
      </trkpt>
      <trkpt lat="48.71685" lon="6.19671">
        <ele>366</ele>
        <time>2011-05-04T18:01:31Z</time>
      </trkpt>
      <trkpt lat="48.71686" lon="6.19622">
        <ele>368</ele>
        <time>2011-05-04T18:02:16Z</time>
      </trkpt>
      <trkpt lat="48.71701" lon="6.1961">
        <ele>369</ele>
        <time>2011-05-04T18:02:21Z</time>
      </trkpt>
      <trkpt lat="48.71711" lon="6.19592">
        <ele>370</ele>
        <time>2011-05-04T18:02:26Z</time>
      </trkpt>
      <trkpt lat="48.71738" lon="6.19544">
        <ele>367</ele>
        <time>2011-05-04T18:02:44Z</time>
      </trkpt>
      <trkpt lat="48.71719" lon="6.19487">
        <ele>354</ele>
        <time>2011-05-04T18:03:02Z</time>
      </trkpt>
      <trkpt lat="48.71725" lon="6.19425">
        <ele>335</ele>
        <time>2011-05-04T18:03:19Z</time>
      </trkpt>
      <trkpt lat="48.71732" lon="6.1936">
        <ele>319</ele>
        <time>2011-05-04T18:03:31Z</time>
      </trkpt>
      <trkpt lat="48.71745" lon="6.19339">
        <ele>313</ele>
        <time>2011-05-04T18:03:35Z</time>
      </trkpt>
      <trkpt lat="48.71787" lon="6.19312">
        <ele>294</ele>
        <time>2011-05-04T18:03:57Z</time>
      </trkpt>
      <trkpt lat="48.71785" lon="6.19287">
        <ele>292</ele>
        <time>2011-05-04T18:04:01Z</time>
      </trkpt>
      <trkpt lat="48.71778" lon="6.19267">
        <ele>285</ele>
        <time>2011-05-04T18:04:10Z</time>
      </trkpt>
      <trkpt lat="48.71784" lon="6.19205">
        <ele>276</ele>
        <time>2011-05-04T18:04:26Z</time>
      </trkpt>
      <trkpt lat="48.71764" lon="6.19146">
        <ele>276</ele>
        <time>2011-05-04T18:04:30Z</time>
      </trkpt>
      <trkpt lat="48.71697" lon="6.18895">
        <ele>262</ele>
        <time>2011-05-04T18:04:57Z</time>
      </trkpt>
      <trkpt lat="48.71711" lon="6.18882">
        <ele>259</ele>
        <time>2011-05-04T18:05:05Z</time>
      </trkpt>
      <trkpt lat="48.71747" lon="6.18842">
        <ele>257</ele>
        <time>2011-05-04T18:05:26Z</time>
      </trkpt>
      <trkpt lat="48.71759" lon="6.18802">
        <ele>261</ele>
        <time>2011-05-04T18:05:40Z</time>
      </trkpt>
      <trkpt lat="48.71751" lon="6.18769">
        <ele>254</ele>
        <time>2011-05-04T18:05:55Z</time>
      </trkpt>
      <trkpt lat="48.71739" lon="6.18713">
        <ele>253</ele>
        <time>2011-05-04T18:06:14Z</time>
      </trkpt>
      <trkpt lat="48.7175" lon="6.18695">
        <ele>259</ele>
        <time>2011-05-04T18:06:30Z</time>
      </trkpt>
      <trkpt lat="48.71795" lon="6.18636">
        <ele>267</ele>
        <time>2011-05-04T18:06:46Z</time>
      </trkpt>
      <trkpt lat="48.71822" lon="6.18603">
        <ele>259</ele>
        <time>2011-05-04T18:06:59Z</time>
      </trkpt>
      <trkpt lat="48.71835" lon="6.18539">
        <ele>251</ele>
        <time>2011-05-04T18:07:07Z</time>
      </trkpt>
      <trkpt lat="48.71831" lon="6.18477">
        <ele>247</ele>
        <time>2011-05-04T18:07:14Z</time>
      </trkpt>
      <trkpt lat="48.71812" lon="6.18469">
        <ele>241</ele>
        <time>2011-05-04T18:07:18Z</time>
      </trkpt>
      <trkpt lat="48.7178" lon="6.18461">
        <ele>232</ele>
        <time>2011-05-04T18:07:27Z</time>
      </trkpt>
      <trkpt lat="48.71775" lon="6.18429">
        <ele>223</ele>
        <time>2011-05-04T18:07:41Z</time>
      </trkpt>
      <trkpt lat="48.71758" lon="6.184">
        <ele>218</ele>
        <time>2011-05-04T18:07:53Z</time>
      </trkpt>
      <trkpt lat="48.7174" lon="6.184">
        <ele>215</ele>
        <time>2011-05-04T18:07:58Z</time>
      </trkpt>
      <trkpt lat="48.71706" lon="6.18403">
        <ele>212</ele>
        <time>2011-05-04T18:08:04Z</time>
      </trkpt>
      <trkpt lat="48.71691" lon="6.18409">
        <ele>212</ele>
        <time>2011-05-04T18:08:07Z</time>
      </trkpt>
      <trkpt lat="48.71669" lon="6.18425">
        <ele>218</ele>
        <time>2011-05-04T18:08:16Z</time>
      </trkpt>
      <trkpt lat="48.71657" lon="6.18406">
        <ele>220</ele>
        <time>2011-05-04T18:08:21Z</time>
      </trkpt>
      <trkpt lat="48.71618" lon="6.18326">
        <ele>199</ele>
        <time>2011-05-04T18:08:54Z</time>
      </trkpt>
      <trkpt lat="48.71613" lon="6.18301">
        <ele>199</ele>
        <time>2011-05-04T18:08:57Z</time>
      </trkpt>
      <trkpt lat="48.7161" lon="6.18262">
        <ele>198</ele>
        <time>2011-05-04T18:09:02Z</time>
      </trkpt>
      <trkpt lat="48.71604" lon="6.18244">
        <ele>191</ele>
        <time>2011-05-04T18:09:35Z</time>
      </trkpt>
      <trkpt lat="48.71596" lon="6.18237">
        <ele>168</ele>
        <time>2011-05-04T18:11:08Z</time>
      </trkpt>
      <trkpt lat="48.71587" lon="6.18258">
        <ele>179</ele>
        <time>2011-05-04T18:12:38Z</time>
      </trkpt>
      <trkpt lat="48.71519" lon="6.18325">
        <ele>201</ele>
        <time>2011-05-04T18:13:07Z</time>
      </trkpt>
      <trkpt lat="48.71495" lon="6.18333">
        <ele>202</ele>
        <time>2011-05-04T18:13:14Z</time>
      </trkpt>
      <trkpt lat="48.71479" lon="6.18334">
        <ele>201</ele>
        <time>2011-05-04T18:13:17Z</time>
      </trkpt>
      <trkpt lat="48.71451" lon="6.1832">
        <ele>201</ele>
        <time>2011-05-04T18:13:22Z</time>
      </trkpt>
      <trkpt lat="48.71406" lon="6.18291">
        <ele>198</ele>
        <time>2011-05-04T18:13:35Z</time>
      </trkpt>
      <trkpt lat="48.71393" lon="6.1828">
        <ele>198</ele>
        <time>2011-05-04T18:13:38Z</time>
      </trkpt>
      <trkpt lat="48.71367" lon="6.18244">
        <ele>193</ele>
        <time>2011-05-04T18:13:46Z</time>
      </trkpt>
      <trkpt lat="48.71362" lon="6.18221">
        <ele>192</ele>
        <time>2011-05-04T18:13:51Z</time>
      </trkpt>
      <trkpt lat="48.71353" lon="6.18181">
        <ele>194</ele>
        <time>2011-05-04T18:14:06Z</time>
      </trkpt>
      <trkpt lat="48.71342" lon="6.18167">
        <ele>194</ele>
        <time>2011-05-04T18:14:17Z</time>
      </trkpt>
      <trkpt lat="48.71323" lon="6.18164">
        <ele>195</ele>
        <time>2011-05-04T18:14:26Z</time>
      </trkpt>
      <trkpt lat="48.71254" lon="6.18164">
        <ele>195</ele>
        <time>2011-05-04T18:14:50Z</time>
      </trkpt>
      <trkpt lat="48.71231" lon="6.18165">
        <ele>197</ele>
        <time>2011-05-04T18:14:59Z</time>
      </trkpt>
      <trkpt lat="48.71186" lon="6.18164">
        <ele>198</ele>
        <time>2011-05-04T18:15:13Z</time>
      </trkpt>
      <trkpt lat="48.7117" lon="6.18162">
        <ele>197</ele>
        <time>2011-05-04T18:15:18Z</time>
      </trkpt>
      <trkpt lat="48.71154" lon="6.18162">
        <ele>198</ele>
        <time>2011-05-04T18:15:24Z</time>
      </trkpt>
      <trkpt lat="48.71133" lon="6.1817">
        <ele>193</ele>
        <time>2011-05-04T18:15:50Z</time>
      </trkpt>
    </trkseg>
  </trk>
</gpx>